Time;durP1;ratioP1;P1;durP2;ratioP2;P2;SDS_P1;SDS_P2;PMS_P1;PMS_P2;Temp;Humidity;BMP_temperature;BMP_pressure;BME280_temperature;BME280_humidity;BME280_pressure;Samples;Min_cycle;Max_cycle;Signal;HPM_P1;HPM_P2
2021/05/11 00:06:18;;;;;;;4.47;2.13;;;;;;;21.26;42.95;100234.72;31283269;28;20047;-58
2021/05/11 00:21:19;;;;;;;3.80;2.30;;;;;;;21.24;42.78;100244.63;31314725;28;20291;-59
2021/05/11 00:36:20;;;;;;;3.90;1.97;;;;;;;21.21;42.63;100226.44;31345538;28;20278;-58
2021/05/11 00:51:21;;;;;;;3.58;2.10;;;;;;;21.17;42.82;100185.44;31321822;28;20303;-55
2021/05/11 01:06:22;;;;;;;3.97;2.37;;;;;;;21.16;42.64;100194.34;31265759;28;20033;-57
2021/05/11 01:21:42;;;;;;;3.67;2.00;;;;;;;21.14;43.01;100177.81;31328807;28;20881;-59
2021/05/11 01:52:28;;;;;;;4.47;2.05;;;;;;;21.10;43.14;100152.72;31291473;28;20037;-59
2021/05/11 02:22:49;;;;;;;4.43;1.70;;;;;;;21.05;43.48;100131.22;31305877;28;19916;-60
2021/05/11 02:37:50;;;;;;;4.75;2.25;;;;;;;21.05;44.30;100116.22;31447141;28;20072;-58
2021/05/11 02:52:51;;;;;;;3.60;2.13;;;;;;;21.03;44.08;100125.28;31295035;28;20044;-57
2021/05/11 03:07:52;;;;;;;5.20;2.43;;;;;;;21.02;44.42;100121.78;31361091;28;20333;-56
2021/05/11 03:22:53;;;;;;;3.85;2.20;;;;;;;21.01;44.48;100104.28;31291880;28;20321;-57
2021/05/11 03:37:54;;;;;;;5.10;2.07;;;;;;;21.02;44.33;100118.31;31436751;28;20043;-58
2021/05/11 03:52:55;;;;;;;2.50;2.00;;;;;;;21.02;44.28;100099.84;31285253;28;20931;-58
2021/05/11 04:07:58;;;;;;;2.70;1.93;;;;;;;21.02;44.11;100079.53;31314218;28;20296;-57
2021/05/11 04:22:59;;;;;;;3.55;2.55;;;;;;;21.17;43.95;100073.63;31319171;28;20291;-58
2021/05/11 04:38:00;;;;;;;3.53;2.50;;;;;;;21.34;43.60;100054.16;31418456;28;20031;-58
2021/05/11 04:53:01;;;;;;;3.80;2.60;;;;;;;21.45;42.90;100048.59;31281745;28;20681;-58
2021/05/11 05:08:02;;;;;;;5.65;2.53;;;;;;;21.53;42.92;100030.09;31337014;28;20291;-59
2021/05/11 05:23:03;;;;;;;4.87;3.03;;;;;;;21.60;42.25;100022.34;31260283;28;20086;-59
2021/05/11 05:38:04;;;;;;;6.10;2.90;;;;;;;21.79;42.11;99996.53;31416155;28;20401;-58
2021/05/11 05:53:12;;;;;;;5.13;3.05;;;;;;;21.83;41.80;99971.38;31251679;28;20059;-59
2021/05/11 06:08:13;;;;;;;4.25;3.33;;;;;;;21.89;42.20;99978.66;31323036;28;20072;-59
2021/05/11 06:23:14;;;;;;;6.00;3.20;;;;;;;21.92;41.84;99973.03;31342064;28;20045;-58
2021/05/11 06:38:15;;;;;;;9.87;4.70;;;;;;;21.78;44.05;99998.34;31345368;28;20295;-58
2021/05/11 06:53:16;;;;;;;10.13;5.13;;;;;;;21.81;44.58;99976.88;31358032;28;20289;-59
2021/05/11 07:08:30;;;;;;;6.67;5.10;;;;;;;21.70;45.19;99979.84;31319216;28;20296;-60
2021/05/11 07:23:31;;;;;;;11.18;4.93;;;;;;;21.90;45.14;99962.63;31338089;28;20297;-60
2021/05/11 07:38:33;;;;;;;9.73;4.90;;;;;;;22.37;44.05;100011.31;31333656;28;20041;-63
2021/05/11 08:39:33;;;;;;;9.90;6.10;;;;;;;23.01;42.20;99921.09;31342823;28;20037;-61
2021/05/11 08:54:51;;;;;;;7.95;6.03;;;;;;;23.28;41.61;99934.81;31348691;28;20083;-61
2021/05/11 09:25:27;;;;;;;9.10;5.60;;;;;;;23.56;41.10;99919.97;31330369;28;20041;-63
2021/05/11 10:11:47;;;;;;;12.50;7.55;;;;;;;24.21;41.55;99869.84;31364268;28;20036;-62
2021/05/11 10:27:21;;;;;;;12.05;7.50;;;;;;;24.23;41.51;99854.53;31385212;28;20041;-62
2021/05/11 11:12:43;;;;;;;7.60;5.60;;;;;;;25.37;39.23;99821.88;31349928;28;20052;-58
2021/05/11 11:27:46;;;;;;;6.53;5.80;;;;;;;25.42;39.13;99816.78;31360378;28;20049;-57
2021/05/11 11:42:49;;;;;;;7.50;5.82;;;;;;;25.32;39.09;99800.38;31367742;28;20116;-56
2021/05/11 11:57:54;;;;;;;9.70;6.50;;;;;;;25.66;38.91;99788.91;31361605;28;20091;-62
2021/05/11 12:12:55;;;;;;;7.93;5.53;;;;;;;25.49;39.37;99789.25;31331529;28;20108;-63
2021/05/11 12:27:59;;;;;;;8.05;5.50;;;;;;;25.47;39.42;99782.44;31354882;28;20045;-63
2021/05/11 12:43:01;;;;;;;7.17;5.63;;;;;;;25.38;39.60;99776.47;31331709;28;20032;-63
2021/05/11 12:58:25;;;;;;;7.03;4.88;;;;;;;25.01;40.52;99774.97;31343581;28;20154;-62
2021/05/11 13:13:44;;;;;;;6.37;5.20;;;;;;;24.81;40.99;99766.88;31339318;28;20036;-63
2021/05/11 13:28:53;;;;;;;9.55;5.28;;;;;;;24.63;41.20;99735.47;31347647;28;20037;-64
2021/05/11 13:43:54;;;;;;;8.52;5.93;;;;;;;24.55;41.28;99725.78;31314069;28;20682;-62
2021/05/11 14:14:14;;;;;;;7.22;5.47;;;;;;;24.25;41.87;99709.97;31345726;28;20279;-63
2021/05/11 14:29:15;;;;;;;8.20;5.60;;;;;;;25.35;39.48;99706.88;31338046;28;20053;-64
2021/05/11 14:44:16;;;;;;;9.37;5.83;;;;;;;25.32;39.28;99694.81;31308906;28;20291;-63
2021/05/11 14:59:18;;;;;;;6.93;6.10;;;;;;;25.13;39.96;99685.69;31356785;28;20296;-64
2021/05/11 15:14:20;;;;;;;8.57;6.43;;;;;;;25.21;41.86;99693.53;31355281;28;20279;-64
2021/05/11 15:29:21;;;;;;;9.77;6.78;;;;;;;24.94;43.29;99691.72;31382597;28;20041;-63
2021/05/11 15:44:21;;;;;;;11.13;7.00;;;;;;;24.96;44.60;99713.59;31362175;28;20025;-65
2021/05/11 15:59:25;;;;;;;8.40;7.47;;;;;;;24.70;45.01;99703.63;31343858;28;20764;-64
2021/05/11 16:14:26;;;;;;;7.82;7.03;;;;;;;24.58;44.70;99700.66;31359063;28;20345;-63
2021/05/11 16:29:27;;;;;;;9.10;6.73;;;;;;;24.48;44.65;99702.84;31359469;28;20067;-64
2021/05/11 16:44:28;;;;;;;8.60;6.90;;;;;;;24.34;44.92;99693.91;31341403;28;20307;-63
2021/05/11 16:59:29;;;;;;;8.18;6.70;;;;;;;24.25;45.65;99674.63;31355770;28;20295;-62
2021/05/11 17:14:30;;;;;;;8.73;6.37;;;;;;;24.17;46.00;99667.63;31382384;28;20374;-64
2021/05/11 17:29:31;;;;;;;7.70;5.97;;;;;;;23.96;47.22;99668.47;31393253;28;20294;-63
2021/05/11 17:44:32;;;;;;;8.27;5.30;;;;;;;23.83;47.98;99685.06;31402912;28;20745;-63
2021/05/11 17:59:33;;;;;;;7.03;5.23;;;;;;;23.61;47.93;99707.22;31332997;28;20299;-62
2021/05/11 18:14:34;;;;;;;8.90;5.33;;;;;;;23.48;47.47;99715.84;31355371;28;20275;-61
2021/05/11 18:29:35;;;;;;;6.40;4.53;;;;;;;23.40;47.71;99710.63;31302672;28;20302;-61
2021/05/11 18:44:36;;;;;;;8.70;4.70;;;;;;;23.00;51.22;99732.13;31376430;28;20349;-64
2021/05/11 18:59:37;;;;;;;6.37;4.77;;;;;;;22.64;52.05;99754.97;31326141;28;20459;-63
2021/05/11 19:14:38;;;;;;;6.83;4.07;;;;;;;22.57;51.62;99808.63;31345786;28;20283;-60
2021/05/11 19:29:39;;;;;;;6.75;4.15;;;;;;;22.84;49.79;99858.59;31341253;28;20797;-61
2021/05/11 19:44:41;;;;;;;6.72;3.25;;;;;;;22.93;49.43;99886.69;31321479;28;20060;-60
2021/05/11 19:59:42;;;;;;;5.05;3.75;;;;;;;22.94;48.85;99949.28;31343420;28;20025;-58
2021/05/11 20:14:43;;;;;;;6.80;4.30;;;;;;;22.90;48.38;100025.66;31360687;28;20127;-57
2021/05/11 20:29:44;;;;;;;5.93;3.80;;;;;;;22.88;48.57;99963.22;31377004;28;20383;-60
2021/05/11 20:44:45;;;;;;;6.77;4.40;;;;;;;22.72;48.61;99860.84;31362572;28;20700;-62
2021/05/11 20:59:46;;;;;;;7.47;4.17;;;;;;;22.82;48.38;99848.19;31309973;28;20303;-63
2021/05/11 21:14:47;;;;;;;8.77;4.60;;;;;;;22.89;48.24;99829.75;31315285;28;20302;-61
2021/05/11 21:29:47;;;;;;;6.07;3.80;;;;;;;22.89;47.81;99803.28;31349282;28;20291;-62
2021/05/11 21:44:49;;;;;;;5.97;3.77;;;;;;;22.91;48.43;99835.72;31338385;28;20606;-58
2021/05/11 21:59:49;;;;;;;5.37;3.03;;;;;;;22.88;48.40;99858.06;31318828;28;20306;-61
2021/05/11 22:14:50;;;;;;;5.53;3.60;;;;;;;22.87;48.52;99867.03;31358704;28;20341;-57
2021/05/11 22:29:52;;;;;;;4.33;2.67;;;;;;;22.77;48.19;99885.81;31338784;28;20049;-60
2021/05/11 22:44:53;;;;;;;4.07;2.92;;;;;;;22.72;48.49;99897.94;31361139;28;20333;-60
2021/05/11 22:59:54;;;;;;;4.32;2.53;;;;;;;22.67;48.19;99882.56;31315735;28;20030;-62
2021/05/11 23:14:56;;;;;;;4.97;2.60;;;;;;;22.65;48.60;99878.44;31364660;28;20036;-61
2021/05/11 23:29:57;;;;;;;5.70;2.80;;;;;;;22.64;48.50;99858.25;31440660;28;20760;-62
2021/05/11 23:44:58;;;;;;;3.83;2.23;;;;;;;22.60;48.53;99884.25;31344569;28;20056;-61
2021/05/11 23:59:59;;;;;;;3.97;2.27;;;;;;;22.58;48.36;99907.44;31296323;28;20386;-59
